Time;durP1;ratioP1;P1;durP2;ratioP2;P2;SDS_P1;SDS_P2;PMS_P1;PMS_P2;Temp;Humidity;BMP_temperature;BMP_pressure;BME280_temperature;BME280_humidity;BME280_pressure;Samples;Min_cycle;Max_cycle;Signal;HPM_P1;HPM_P2
2022/03/16 00:00:51;;;;;;;13.30;9.30;;;;;;;2.62;100.00;101666.03;5213289;28;20056;-77
2022/03/16 00:03:21;;;;;;;12.57;8.52;;;;;;;2.52;100.00;101670.19;5232141;28;20040;-76
2022/03/16 00:05:53;;;;;;;12.30;8.70;;;;;;;2.52;100.00;101675.34;5234500;28;20086;-76
2022/03/16 00:08:28;;;;;;;15.20;8.98;;;;;;;2.45;100.00;101676.13;5231011;28;20056;-77
2022/03/16 00:10:59;;;;;;;11.50;8.35;;;;;;;2.54;100.00;101677.97;5233457;28;20108;-76
2022/03/16 00:13:29;;;;;;;14.40;9.18;;;;;;;2.66;100.00;101678.13;5231908;28;20107;-76
2022/03/16 00:15:59;;;;;;;14.23;8.85;;;;;;;2.44;100.00;101683.81;5233576;28;20481;-76
2022/03/16 00:18:29;;;;;;;15.80;10.00;;;;;;;2.58;100.00;101682.31;5233764;28;20064;-76
2022/03/16 00:21:00;;;;;;;14.73;9.13;;;;;;;2.25;100.00;101684.38;5232472;28;20025;-75
2022/03/16 00:23:30;;;;;;;14.20;8.98;;;;;;;2.21;100.00;101688.66;5233416;28;20677;-76
2022/03/16 00:26:01;;;;;;;17.80;10.23;;;;;;;2.26;100.00;101696.44;5231627;28;20033;-75
2022/03/16 00:28:31;;;;;;;17.27;9.55;;;;;;;2.28;100.00;101699.91;5233255;28;20119;-76
2022/03/16 00:31:04;;;;;;;16.13;9.70;;;;;;;2.27;100.00;101700.75;5231686;28;20108;-75
2022/03/16 00:33:34;;;;;;;13.63;9.45;;;;;;;2.29;100.00;101701.63;5231817;28;20490;-76
2022/03/16 00:36:05;;;;;;;18.13;8.98;;;;;;;2.38;100.00;101712.09;5232274;28;20028;-77
2022/03/16 00:38:35;;;;;;;15.43;9.10;;;;;;;2.18;100.00;101709.19;5231985;28;20111;-77
2022/03/16 00:41:07;;;;;;;17.95;10.43;;;;;;;2.27;100.00;101711.94;5231880;28;20578;-76
2022/03/16 00:43:38;;;;;;;16.38;10.30;;;;;;;2.22;100.00;101711.00;5232503;28;20170;-75
2022/03/16 00:46:08;;;;;;;17.63;10.10;;;;;;;2.35;100.00;101723.22;5231881;28;20040;-76
2022/03/16 00:48:39;;;;;;;17.38;10.23;;;;;;;2.27;100.00;101719.69;5233763;28;20047;-76
2022/03/16 00:51:09;;;;;;;19.15;10.60;;;;;;;2.28;100.00;101717.94;5232955;28;20099;-75
2022/03/16 00:53:41;;;;;;;19.02;10.82;;;;;;;2.25;100.00;101723.06;5231381;28;20033;-76
2022/03/16 00:56:12;;;;;;;17.05;10.30;;;;;;;1.78;100.00;101729.09;5232314;28;20025;-76
2022/03/16 00:58:42;;;;;;;17.60;10.23;;;;;;;1.94;100.00;101729.44;5231077;28;20450;-75
2022/03/16 01:01:13;;;;;;;19.73;11.02;;;;;;;1.88;100.00;101736.19;5232685;28;20029;-76
2022/03/16 01:03:43;;;;;;;17.67;10.27;;;;;;;1.84;100.00;101736.97;5231115;28;20029;-76
2022/03/16 01:06:15;;;;;;;16.55;10.13;;;;;;;1.68;100.00;101737.53;5230055;28;20028;-76
2022/03/16 01:08:46;;;;;;;16.77;10.00;;;;;;;1.80;100.00;101730.03;5232913;28;20425;-76
2022/03/16 01:11:16;;;;;;;14.45;9.30;;;;;;;2.11;100.00;101732.28;5229273;28;20028;-76
2022/03/16 01:13:46;;;;;;;14.52;8.88;;;;;;;2.13;100.00;101733.19;5233115;28;20033;-76
2022/03/16 01:16:17;;;;;;;13.48;8.98;;;;;;;2.18;100.00;101737.56;5230043;28;20027;-75
2022/03/16 01:18:47;;;;;;;13.27;8.70;;;;;;;2.03;100.00;101731.28;5233556;28;20083;-75
2022/03/16 01:21:17;;;;;;;12.82;8.30;;;;;;;2.17;100.00;101738.41;5233222;28;20028;-76
2022/03/16 01:23:47;;;;;;;12.43;8.02;;;;;;;2.22;100.00;101741.94;5229826;28;20037;-76
2022/03/16 01:26:18;;;;;;;13.82;8.15;;;;;;;2.11;100.00;101742.59;5232568;28;20063;-76
2022/03/16 01:28:48;;;;;;;14.10;8.55;;;;;;;2.29;100.00;101742.91;5230109;28;20513;-76
2022/03/16 01:31:19;;;;;;;14.00;8.65;;;;;;;2.09;100.00;101750.31;5232952;28;20516;-76
2022/03/16 01:33:50;;;;;;;14.70;9.15;;;;;;;2.08;100.00;101747.69;5230866;28;20035;-76
2022/03/16 01:36:20;;;;;;;15.75;9.88;;;;;;;1.84;100.00;101755.00;5229236;28;20423;-76
2022/03/16 01:38:50;;;;;;;16.80;10.18;;;;;;;1.91;100.00;101750.00;5233219;28;20039;-75
2022/03/16 01:41:21;;;;;;;16.90;10.68;;;;;;;2.06;100.00;101751.97;5224105;28;20033;-75
2022/03/16 01:43:56;;;;;;;16.38;9.98;;;;;;;1.89;100.00;101751.69;5232890;28;20122;-78
2022/03/16 01:46:26;;;;;;;17.48;10.35;;;;;;;1.71;100.00;101759.91;5237313;28;20452;-77
2022/03/16 01:48:58;;;;;;;19.27;11.00;;;;;;;1.57;100.00;101754.47;5234152;28;20024;-76
2022/03/16 01:51:29;;;;;;;21.52;11.82;;;;;;;1.46;100.00;101755.13;5233318;28;20032;-76
2022/03/16 01:54:00;;;;;;;20.77;11.52;;;;;;;1.46;100.00;101752.53;5230281;28;20031;-75
2022/03/16 01:56:30;;;;;;;25.10;13.38;;;;;;;1.46;100.00;101761.16;5234995;28;20112;-76
2022/03/16 01:59:01;;;;;;;23.05;12.65;;;;;;;1.45;100.00;101767.13;5231419;28;20490;-76
2022/03/16 02:01:31;;;;;;;22.20;12.70;;;;;;;1.43;100.00;101768.78;5233736;28;20094;-78
2022/03/16 02:04:01;;;;;;;20.02;12.15;;;;;;;1.69;100.00;101762.44;5233474;28;20100;-77
2022/03/16 02:06:32;;;;;;;23.45;12.10;;;;;;;1.66;100.00;101770.13;5234499;28;20040;-77
2022/03/16 02:09:02;;;;;;;25.25;12.30;;;;;;;1.82;100.00;101772.16;5233541;28;20611;-75
2022/03/16 02:11:33;;;;;;;20.65;12.10;;;;;;;1.61;100.00;101778.59;5231340;28;20028;-75
2022/03/16 02:14:03;;;;;;;24.77;12.65;;;;;;;1.63;100.00;101780.38;5231847;28;20029;-76
2022/03/16 02:16:34;;;;;;;24.23;12.52;;;;;;;1.74;100.00;101780.59;5233661;28;20083;-75
2022/03/16 02:19:04;;;;;;;23.60;13.00;;;;;;;1.44;100.00;101782.56;5228160;28;20258;-76
2022/03/16 02:21:38;;;;;;;21.95;11.20;;;;;;;1.54;100.00;101789.63;5232729;28;20036;-78
2022/03/16 02:24:08;;;;;;;18.23;10.70;;;;;;;1.56;100.00;101787.97;5236340;28;20020;-78
2022/03/16 02:26:39;;;;;;;19.30;11.50;;;;;;;1.58;100.00;101781.97;5234911;28;20047;-76
2022/03/16 02:29:10;;;;;;;22.23;10.70;;;;;;;1.49;100.00;101788.66;5237900;28;20025;-77
2022/03/16 02:31:40;;;;;;;23.30;11.18;;;;;;;1.75;100.00;101780.59;5234634;28;20028;-75
2022/03/16 02:34:10;;;;;;;21.98;12.23;;;;;;;1.68;100.00;101776.19;5234837;28;20050;-76
2022/03/16 02:36:40;;;;;;;21.65;12.13;;;;;;;1.77;100.00;101780.63;5235083;28;20055;-75
2022/03/16 02:39:11;;;;;;;22.98;12.13;;;;;;;1.85;100.00;101764.47;5219704;28;20079;-78
2022/03/16 02:41:46;;;;;;;23.85;12.40;;;;;;;1.92;100.00;101784.34;5255881;22;20041;-78
2022/03/16 02:44:16;;;;;;;26.27;12.95;;;;;;;2.00;100.00;101775.06;5252943;28;20035;-78
2022/03/16 02:46:46;;;;;;;26.45;12.65;;;;;;;1.99;100.00;101778.50;5256465;28;20032;-78
2022/03/16 02:49:17;;;;;;;25.80;14.30;;;;;;;1.83;100.00;101776.47;5257033;28;20073;-78
2022/03/16 02:51:47;;;;;;;21.73;12.45;;;;;;;1.69;100.00;101777.91;5241973;28;20040;-78
2022/03/16 02:54:17;;;;;;;19.48;11.55;;;;;;;1.54;100.00;101781.91;5232295;28;20114;-78
2022/03/16 02:56:48;;;;;;;18.48;11.18;;;;;;;1.65;100.00;101785.53;5236135;28;20020;-78
2022/03/16 02:59:18;;;;;;;20.80;12.07;;;;;;;1.75;100.00;101792.63;5233488;28;20359;-78
2022/03/16 03:01:48;;;;;;;20.02;11.75;;;;;;;1.53;100.00;101793.03;5237285;28;20603;-78
2022/03/16 03:04:19;;;;;;;21.17;11.95;;;;;;;1.62;100.00;101799.25;5232999;28;20583;-79
2022/03/16 03:06:49;;;;;;;27.17;14.02;;;;;;;1.41;100.00;101800.53;5235654;28;20036;-78
2022/03/16 03:09:19;;;;;;;29.45;14.38;;;;;;;1.55;100.00;101799.09;5232512;28;20090;-78
2022/03/16 03:11:49;;;;;;;31.13;16.95;;;;;;;1.68;100.00;101794.22;5235568;28;20024;-78
2022/03/16 03:14:20;;;;;;;47.45;16.23;;;;;;;1.33;100.00;101802.03;5232358;28;20032;-78
2022/03/16 03:16:50;;;;;;;36.40;15.20;;;;;;;1.58;100.00;101800.00;5236275;28;20371;-78
2022/03/16 03:19:23;;;;;;;34.80;16.08;;;;;;;1.86;100.00;101810.03;5235881;28;20032;-78
2022/03/16 03:21:53;;;;;;;36.17;17.67;;;;;;;1.92;100.00;101803.28;5232136;28;20045;-78
2022/03/16 03:24:24;;;;;;;31.50;14.90;;;;;;;1.56;100.00;101812.00;5235621;28;20056;-78
2022/03/16 03:26:54;;;;;;;27.73;12.98;;;;;;;1.68;100.00;101806.22;5232075;28;20174;-78
2022/03/16 03:29:24;;;;;;;21.92;12.68;;;;;;;1.72;100.00;101808.88;5235507;28;20520;-78
2022/03/16 03:31:54;;;;;;;23.10;12.77;;;;;;;1.77;100.00;101811.56;5232953;28;20167;-78
2022/03/16 03:34:25;;;;;;;24.33;13.88;;;;;;;1.81;100.00;101819.38;5232478;28;20441;-78
2022/03/16 03:36:55;;;;;;;24.23;13.75;;;;;;;1.80;100.00;101817.66;5235675;28;20028;-78
2022/03/16 03:39:25;;;;;;;21.50;13.20;;;;;;;1.70;100.00;101809.69;5232095;28;20082;-78
2022/03/16 03:41:55;;;;;;;22.40;12.90;;;;;;;1.42;100.00;101810.84;5234269;28;20024;-78
2022/03/16 03:44:26;;;;;;;18.55;11.65;;;;;;;1.07;100.00;101814.34;5232366;28;20115;-78
2022/03/16 03:46:56;;;;;;;22.38;12.32;;;;;;;1.24;100.00;101812.16;5234921;28;20720;-78
2022/03/16 03:49:26;;;;;;;18.50;11.27;;;;;;;1.11;100.00;101810.16;5235765;28;20424;-79
2022/03/16 03:51:57;;;;;;;18.98;11.85;;;;;;;1.31;100.00;101820.06;5232240;28;20017;-79
2022/03/16 03:54:27;;;;;;;19.38;12.25;;;;;;;1.35;100.00;101816.69;5235110;28;20063;-79
2022/03/16 03:56:58;;;;;;;20.17;12.35;;;;;;;1.53;100.00;101818.78;5233008;28;20483;-79
2022/03/16 03:59:28;;;;;;;29.50;12.60;;;;;;;1.33;100.00;101815.81;5234968;28;20082;-79
2022/03/16 04:01:59;;;;;;;23.35;12.32;;;;;;;1.21;100.00;101815.53;5233343;28;20112;-79
2022/03/16 04:04:29;;;;;;;24.35;13.35;;;;;;;1.30;100.00;101815.75;5214451;28;20028;-79
2022/03/16 04:06:59;;;;;;;22.35;12.88;;;;;;;1.37;100.00;101812.44;5235008;28;20090;-79
2022/03/16 04:09:30;;;;;;;19.67;12.70;;;;;;;1.52;100.00;101810.19;5233338;28;20025;-79
2022/03/16 04:12:00;;;;;;;21.77;13.88;;;;;;;1.75;100.00;101808.94;5234713;28;20021;-79
2022/03/16 04:14:30;;;;;;;26.27;13.48;;;;;;;1.38;100.00;101810.75;5233108;28;20387;-79
2022/03/16 04:17:00;;;;;;;34.30;12.35;;;;;;;1.41;100.00;101813.41;5234068;28;20021;-79
2022/03/16 04:19:31;;;;;;;18.80;11.63;;;;;;;1.37;100.00;101801.31;5235405;28;20166;-79
2022/03/16 04:22:01;;;;;;;20.50;12.23;;;;;;;1.26;100.00;101811.34;5232690;28;20032;-79
2022/03/16 04:24:31;;;;;;;15.73;10.93;;;;;;;1.37;100.00;101804.72;5235296;28;20060;-79
2022/03/16 04:27:02;;;;;;;20.52;12.82;;;;;;;1.39;100.00;101810.78;5231268;28;20029;-79
2022/03/16 04:29:32;;;;;;;24.13;12.63;;;;;;;1.15;100.00;101806.81;5233665;28;20028;-79
2022/03/16 04:32:03;;;;;;;19.48;12.93;;;;;;;1.31;100.00;101808.88;5233339;28;20124;-79
2022/03/16 04:34:33;;;;;;;19.95;12.15;;;;;;;1.28;100.00;101804.56;5232248;28;20509;-79
2022/03/16 04:37:04;;;;;;;21.20;13.38;;;;;;;1.36;100.00;101803.00;5233721;28;20103;-79
2022/03/16 04:39:34;;;;;;;18.65;12.98;;;;;;;1.30;100.00;101797.72;5233607;28;20040;-79
2022/03/16 04:42:05;;;;;;;22.13;14.10;;;;;;;1.36;100.00;101799.53;5232988;28;20028;-79
2022/03/16 04:44:36;;;;;;;21.92;13.35;;;;;;;1.54;100.00;101792.22;5234010;28;20552;-79
2022/03/16 04:47:06;;;;;;;19.75;12.95;;;;;;;1.43;100.00;101791.13;5232625;28;20537;-79
2022/03/16 04:49:36;;;;;;;22.33;14.40;;;;;;;1.36;100.00;101795.25;5235904;28;20055;-78
2022/03/16 04:52:07;;;;;;;19.92;13.80;;;;;;;1.46;100.00;101799.78;5234061;28;20028;-79
2022/03/16 04:54:37;;;;;;;24.73;13.88;;;;;;;1.57;100.00;101800.00;5234344;28;20043;-79
2022/03/16 04:57:07;;;;;;;18.55;12.88;;;;;;;1.52;100.00;101799.00;5231615;28;20024;-79
2022/03/16 04:59:37;;;;;;;19.55;13.15;;;;;;;1.52;100.00;101799.91;5239636;28;20028;-79
2022/03/16 05:02:08;;;;;;;19.25;13.07;;;;;;;1.38;100.00;101805.59;5228645;28;20136;-79
2022/03/16 05:04:38;;;;;;;20.85;13.65;;;;;;;1.52;100.00;101793.84;5234507;28;20063;-79
2022/03/16 05:07:08;;;;;;;21.42;13.35;;;;;;;1.52;100.00;101791.28;5235017;28;20029;-79
2022/03/16 05:09:38;;;;;;;19.55;12.95;;;;;;;1.43;100.00;101793.69;5235847;28;20048;-79
2022/03/16 05:12:09;;;;;;;18.83;13.07;;;;;;;1.34;100.00;101801.22;5235194;28;20036;-79
2022/03/16 05:14:39;;;;;;;20.65;13.30;;;;;;;1.38;100.00;101806.47;5234471;28;20032;-78
2022/03/16 05:17:10;;;;;;;21.90;13.90;;;;;;;1.31;100.00;101804.59;5235884;28;20016;-79
2022/03/16 05:19:41;;;;;;;22.08;14.20;;;;;;;1.25;100.00;101807.03;5235282;28;20024;-79
2022/03/16 05:22:11;;;;;;;21.83;13.77;;;;;;;1.28;100.00;101817.44;5233393;28;20024;-79
2022/03/16 05:24:41;;;;;;;21.73;13.57;;;;;;;1.20;100.00;101812.94;5234055;28;20037;-79
2022/03/16 05:27:12;;;;;;;26.83;13.75;;;;;;;1.29;100.00;101816.59;5232408;28;20031;-79
2022/03/16 05:29:42;;;;;;;20.40;13.32;;;;;;;1.37;100.00;101809.03;5233287;28;20033;-79
2022/03/16 05:32:12;;;;;;;21.45;13.50;;;;;;;1.50;100.00;101813.56;5230103;28;20043;-79
2022/03/16 05:34:42;;;;;;;19.42;12.60;;;;;;;1.33;100.00;101812.34;5235129;28;20496;-79
2022/03/16 05:37:13;;;;;;;21.55;11.57;;;;;;;1.35;100.00;101808.09;5232111;28;20029;-79
2022/03/16 05:39:43;;;;;;;17.45;12.05;;;;;;;1.37;100.00;101815.03;5231714;28;20103;-78
2022/03/16 05:42:14;;;;;;;17.40;11.40;;;;;;;1.27;100.00;101817.38;5233518;28;20040;-79
2022/03/16 05:44:44;;;;;;;17.63;11.25;;;;;;;1.34;100.00;101808.94;5232845;28;20469;-78
2022/03/16 05:47:15;;;;;;;18.48;12.00;;;;;;;1.36;100.00;101813.28;5233412;28;20113;-79
2022/03/16 05:49:45;;;;;;;19.48;11.82;;;;;;;1.38;100.00;101810.75;5224453;28;20052;-79
2022/03/16 05:52:16;;;;;;;18.45;10.93;;;;;;;1.23;100.00;101819.00;5236566;28;20095;-80
2022/03/16 05:54:51;;;;;;;17.90;11.00;;;;;;;1.37;100.00;101815.03;5221602;28;20048;-80
2022/03/16 05:57:23;;;;;;;18.30;11.07;;;;;;;1.22;100.00;101819.84;5238750;28;20088;-79
2022/03/16 05:59:53;;;;;;;21.95;11.43;;;;;;;1.33;100.00;101813.22;5241493;28;20578;-79
2022/03/16 06:02:24;;;;;;;18.58;11.48;;;;;;;1.45;100.00;101823.81;5224438;28;20032;-79
2022/03/16 06:04:54;;;;;;;18.70;12.05;;;;;;;1.46;100.00;101829.81;5224317;28;20032;-80
2022/03/16 06:07:24;;;;;;;20.15;11.85;;;;;;;1.57;100.00;101834.34;5250729;28;20039;-80
2022/03/16 06:09:54;;;;;;;18.40;11.75;;;;;;;1.53;100.00;101847.09;5247411;28;21003;-80
2022/03/16 06:12:25;;;;;;;22.10;11.52;;;;;;;1.42;100.00;101843.47;5240092;28;20029;-78
2022/03/16 06:14:55;;;;;;;18.17;11.88;;;;;;;1.81;100.00;101843.44;5238131;28;20040;-78
2022/03/16 06:17:25;;;;;;;20.83;12.35;;;;;;;1.72;100.00;101847.53;5238378;28;20024;-77
2022/03/16 06:19:55;;;;;;;19.02;12.27;;;;;;;1.91;100.00;101842.78;5236236;28;20036;-78
2022/03/16 06:22:26;;;;;;;23.58;12.30;;;;;;;2.07;100.00;101849.09;5235934;28;20033;-77
2022/03/16 06:24:56;;;;;;;19.67;11.98;;;;;;;1.67;100.00;101854.31;5234874;28;20029;-80
2022/03/16 06:27:26;;;;;;;17.80;11.57;;;;;;;1.72;100.00;101849.25;5240724;28;20036;-79
2022/03/16 06:29:56;;;;;;;16.88;11.27;;;;;;;2.13;100.00;101849.22;5239615;28;20108;-79
2022/03/16 06:32:27;;;;;;;17.17;11.48;;;;;;;2.26;100.00;101856.31;5243313;28;20059;-79
2022/03/16 06:34:58;;;;;;;16.40;11.60;;;;;;;2.17;100.00;101853.59;5235744;28;20078;-79
2022/03/16 06:37:28;;;;;;;17.85;11.35;;;;;;;2.24;100.00;101861.47;5234763;28;20033;-79
2022/03/16 06:39:59;;;;;;;15.68;11.00;;;;;;;2.33;100.00;101863.34;5238514;28;20024;-78
2022/03/16 06:42:29;;;;;;;16.10;11.25;;;;;;;2.68;100.00;101860.50;5220159;28;20029;-79
2022/03/16 06:44:59;;;;;;;15.32;11.00;;;;;;;2.75;100.00;101864.94;5235788;28;20086;-79
2022/03/16 06:47:30;;;;;;;15.82;10.75;;;;;;;3.12;100.00;101866.38;5239001;28;20060;-79
2022/03/16 06:50:00;;;;;;;15.20;10.45;;;;;;;3.00;100.00;101867.06;5237777;28;20024;-78
2022/03/16 06:52:30;;;;;;;15.57;9.93;;;;;;;3.43;100.00;101869.44;5239817;28;20028;-78
2022/03/16 06:55:00;;;;;;;14.90;10.18;;;;;;;3.59;100.00;101867.06;5234125;28;20067;-79
2022/03/16 06:57:31;;;;;;;13.57;9.38;;;;;;;4.00;100.00;101867.59;5239908;28;20036;-79
2022/03/16 07:00:03;;;;;;;15.43;10.38;;;;;;;3.16;100.00;101876.78;5237746;28;20053;-79
2022/03/16 07:02:54;;;;;;;14.48;10.05;;;;;;;3.52;100.00;101884.19;5233940;28;20033;-79
2022/03/16 07:05:27;;;;;;;16.85;10.48;;;;;;;3.61;100.00;101891.22;5238436;28;20168;-79
2022/03/16 07:08:02;;;;;;;17.50;11.15;;;;;;;3.81;100.00;101892.34;5235513;28;20025;-79
2022/03/16 07:10:33;;;;;;;;;;;;;;;3.86;100.00;101892.41;5221033;28;20024;-79
2022/03/16 07:13:04;;;;;;;15.23;9.85;;;;;;;3.64;100.00;101891.25;5242730;28;20321;-79
2022/03/16 07:15:34;;;;;;;16.58;10.55;;;;;;;3.85;100.00;101901.00;5240676;28;20032;-79
2022/03/16 07:18:05;;;;;;;16.95;10.95;;;;;;;3.92;100.00;101898.50;5244155;28;20119;-79
2022/03/16 07:20:35;;;;;;;17.83;11.23;;;;;;;3.81;100.00;101896.66;5239585;28;20085;-79
2022/03/16 07:23:09;;;;;;;16.75;10.63;;;;;;;3.89;100.00;101893.31;5240283;28;20033;-79
2022/03/16 07:25:45;;;;;;;17.13;10.90;;;;;;;3.98;100.00;101893.41;5238138;28;20028;-79
2022/03/16 07:28:16;;;;;;;16.70;10.13;;;;;;;4.35;100.00;101899.88;5240476;28;20108;-79
2022/03/16 07:30:47;;;;;;;15.88;10.68;;;;;;;4.41;100.00;101895.63;5238548;28;20039;-79
2022/03/16 07:33:18;;;;;;;16.80;10.60;;;;;;;4.21;100.00;101904.91;5238726;28;20029;-79
2022/03/16 07:35:48;;;;;;;16.63;10.90;;;;;;;4.41;100.00;101903.41;5241444;28;20028;-79
2022/03/16 07:38:19;;;;;;;17.63;10.90;;;;;;;4.25;100.00;101906.69;5237882;28;20028;-79
2022/03/16 07:40:50;;;;;;;15.98;10.55;;;;;;;4.27;100.00;101906.69;5241690;28;20398;-79
2022/03/16 07:43:20;;;;;;;19.98;10.95;;;;;;;4.47;100.00;101916.41;5222203;28;20032;-79
2022/03/16 07:45:51;;;;;;;16.02;10.93;;;;;;;4.69;100.00;101905.41;5243372;28;20025;-79
2022/03/16 07:48:21;;;;;;;14.80;10.32;;;;;;;4.71;100.00;101905.41;5243016;28;20481;-79
2022/03/16 07:50:51;;;;;;;15.13;10.45;;;;;;;5.29;100.00;101913.69;5238157;28;20036;-79
2022/03/16 07:53:21;;;;;;;14.98;10.52;;;;;;;5.68;100.00;101913.91;5242209;28;20098;-79
2022/03/16 07:55:55;;;;;;;15.38;10.00;;;;;;;5.94;100.00;101914.97;5219743;28;20035;-79
2022/03/16 07:58:25;;;;;;;15.07;10.07;;;;;;;6.04;100.00;101915.00;5237520;28;20024;-79
2022/03/16 08:00:56;;;;;;;17.23;10.90;;;;;;;6.06;100.00;101912.44;5243882;28;20023;-79
2022/03/16 08:03:27;;;;;;;15.05;10.18;;;;;;;6.72;100.00;101913.47;5237880;28;20030;-79
2022/03/16 08:05:57;;;;;;;13.23;9.48;;;;;;;6.77;100.00;101916.09;5237292;28;20112;-80
2022/03/16 08:08:28;;;;;;;17.60;10.77;;;;;;;7.29;100.00;101914.34;5239967;28;20093;-79
2022/03/16 08:10:59;;;;;;;16.38;10.07;;;;;;;7.42;100.00;101917.81;5240049;28;20028;-79
2022/03/16 08:13:29;;;;;;;14.82;9.25;;;;;;;7.32;100.00;101922.16;5237952;28;20043;-80
2022/03/16 08:15:59;;;;;;;14.73;10.40;;;;;;;7.32;100.00;101924.75;5238966;28;20021;-79
2022/03/16 08:18:30;;;;;;;13.63;9.63;;;;;;;7.92;99.29;101924.63;5237124;28;20171;-79
2022/03/16 08:21:02;;;;;;;15.65;9.40;;;;;;;7.10;100.00;101931.69;5237562;28;20052;-79
2022/03/16 08:23:33;;;;;;;16.67;10.10;;;;;;;7.05;100.00;101933.41;5238402;28;20504;-79
2022/03/16 08:26:03;;;;;;;17.42;10.95;;;;;;;7.78;99.26;101926.41;5236784;28;20048;-79
2022/03/16 08:28:33;;;;;;;15.25;10.18;;;;;;;8.29;97.59;101917.56;5237935;28;20037;-79
2022/03/16 08:31:03;;;;;;;16.30;10.25;;;;;;;8.08;99.71;101922.84;5237326;28;20066;-80
2022/03/16 08:33:34;;;;;;;17.58;11.07;;;;;;;8.08;100.00;101920.22;5225575;28;20086;-79
2022/03/16 08:36:07;;;;;;;19.40;10.13;;;;;;;8.62;99.25;101920.84;5220278;28;20486;-80
2022/03/16 08:38:38;;;;;;;16.63;10.32;;;;;;;8.29;100.00;101930.56;5238707;28;20111;-79
2022/03/16 08:41:10;;;;;;;15.25;9.95;;;;;;;8.37;100.00;101928.81;5240902;22;20032;-80
2022/03/16 08:43:40;;;;;;;16.83;10.52;;;;;;;9.06;100.00;101926.59;5280311;28;20040;-80
2022/03/16 08:46:11;;;;;;;16.75;9.88;;;;;;;9.37;94.01;101933.31;5279098;28;20144;-80
2022/03/16 08:48:41;;;;;;;15.60;9.85;;;;;;;8.66;100.00;101932.97;5263514;28;20829;-77
2022/03/16 08:51:12;;;;;;;14.80;9.63;;;;;;;8.67;100.00;101932.09;5257637;28;20033;-78
2022/03/16 08:53:43;;;;;;;16.17;9.23;;;;;;;9.68;97.73;101935.59;5259811;28;20285;-80
2022/03/16 08:56:13;;;;;;;18.55;10.02;;;;;;;10.98;91.07;101926.94;5237885;28;20036;-79
2022/03/16 08:58:44;;;;;;;15.02;8.93;;;;;;;11.87;86.34;101922.78;5260141;28;20066;-79
2022/03/16 09:01:14;;;;;;;14.88;9.45;;;;;;;13.45;79.06;101928.81;5238550;28;20040;-77
2022/03/16 09:03:44;;;;;;;13.03;8.83;;;;;;;13.69;78.93;101922.88;5241684;28;20039;-80
2022/03/16 09:06:14;;;;;;;18.00;9.43;;;;;;;12.14;84.71;101926.63;5260278;28;20397;-80
2022/03/16 09:08:45;;;;;;;14.77;8.53;;;;;;;13.58;77.48;101926.72;5239909;28;20819;-78
2022/03/16 09:11:15;;;;;;;13.02;8.65;;;;;;;15.67;73.09;101907.03;5241905;28;20274;-81
2022/03/16 09:13:47;;;;;;;14.30;8.82;;;;;;;14.53;75.29;101914.34;5257018;28;20081;-80
2022/03/16 09:16:17;;;;;;;13.80;9.23;;;;;;;13.57;76.46;101914.47;5241909;28;20446;-81
2022/03/16 09:18:50;;;;;;;16.20;9.32;;;;;;;12.89;79.74;101915.31;5239973;28;20068;-80
2022/03/16 09:21:21;;;;;;;14.00;9.48;;;;;;;13.19;83.70;101911.94;5237929;28;20028;-82
2022/03/16 09:23:53;;;;;;;18.42;9.82;;;;;;;12.79;80.54;101913.78;5255510;28;20540;-83
2022/03/16 09:26:23;;;;;;;16.88;9.93;;;;;;;13.06;80.98;101921.03;5239830;28;20039;-81
2022/03/16 09:28:55;;;;;;;15.63;9.93;;;;;;;12.09;88.05;101925.84;5253919;28;20029;-83
2022/03/16 09:31:25;;;;;;;22.33;10.65;;;;;;;12.08;86.49;101927.59;5257352;28;20057;-80
2022/03/16 09:33:56;;;;;;;19.93;10.07;;;;;;;12.02;86.58;101935.59;5255290;28;20132;-81
2022/03/16 09:36:26;;;;;;;19.17;10.68;;;;;;;12.10;87.25;101932.81;5253181;28;20275;-81
2022/03/16 09:38:56;;;;;;;18.23;10.53;;;;;;;12.03;88.25;101932.06;5238883;28;20027;-81
2022/03/16 09:41:27;;;;;;;25.50;11.43;;;;;;;11.68;91.94;101937.13;5252375;28;20298;-82
2022/03/16 09:43:57;;;;;;;20.40;11.05;;;;;;;12.07;89.32;101936.34;5253504;28;20063;-83
2022/03/16 09:46:32;;;;;;;22.25;10.57;;;;;;;12.50;91.18;101933.69;5234557;28;20035;-82
2022/03/16 09:49:04;;;;;;;22.38;11.25;;;;;;;13.07;90.70;101938.53;5234977;28;20040;-85
2022/03/16 09:51:36;;;;;;;16.75;10.30;;;;;;;12.90;89.31;101933.63;5253823;28;20040;-83
2022/03/16 09:54:07;;;;;;;20.23;10.90;;;;;;;13.29;86.40;101926.59;5256390;28;20030;-80
2022/03/16 09:56:38;;;;;;;16.50;9.13;;;;;;;12.82;82.78;101925.97;5233103;28;20468;-83
2022/03/16 09:59:08;;;;;;;19.63;9.93;;;;;;;12.13;83.87;101933.59;5256287;28;20036;-83
2022/03/16 10:01:39;;;;;;;19.35;9.27;;;;;;;12.23;85.93;101929.91;5238019;28;20206;-83
2022/03/16 10:04:10;;;;;;;20.90;10.15;;;;;;;12.50;87.41;101934.53;5238504;28;20070;-82
2022/03/16 10:06:42;;;;;;;20.15;10.32;;;;;;;12.65;86.20;101936.84;5239984;28;20047;-80
2022/03/16 10:15:19;;;;;;;17.67;9.02;;;;;;;12.67;87.24;101945.53;5261638;28;20115;-82
2022/03/16 10:17:56;;;;;;;18.98;8.73;;;;;;;12.46;84.39;101940.75;5238599;28;20017;-80
2022/03/16 10:20:39;;;;;;;17.58;8.18;;;;;;;12.19;86.01;101941.34;5229966;28;20473;-80
2022/03/16 10:23:13;;;;;;;14.75;7.68;;;;;;;12.25;86.99;101932.47;5239075;28;20031;-82
2022/03/16 10:25:51;;;;;;;15.40;8.32;;;;;;;12.33;89.28;101926.19;5236972;28;20044;-82
2022/03/16 10:28:22;;;;;;;16.85;8.63;;;;;;;12.12;88.83;101931.03;5240310;28;20023;-82
2022/03/16 10:30:55;;;;;;;19.20;8.05;;;;;;;12.00;86.83;101929.53;5254827;28;20032;-82
2022/03/16 10:33:32;;;;;;;17.95;8.40;;;;;;;11.95;85.77;101923.47;5257638;28;20035;-83
2022/03/16 10:36:08;;;;;;;14.55;7.30;;;;;;;11.69;84.85;101931.00;5256608;28;20058;-81
2022/03/16 10:38:45;;;;;;;18.52;8.00;;;;;;;11.46;86.83;101932.25;5236680;28;20035;-80
2022/03/16 10:47:10;;;;;;;17.73;8.73;;;;;;;11.78;89.84;101935.19;5260398;28;20044;-80
2022/03/16 10:50:04;;;;;;;17.58;9.88;;;;;;;11.88;90.02;101934.09;5243959;28;20039;-82
2022/03/16 10:52:35;;;;;;;20.73;9.35;;;;;;;11.59;88.73;101934.66;5243170;28;20068;-82
2022/03/16 10:55:06;;;;;;;20.65;10.02;;;;;;;11.48;88.93;101927.84;5241758;28;20371;-81
2022/03/16 10:57:38;;;;;;;19.13;9.57;;;;;;;11.46;91.03;101927.88;5242151;28;20035;-82
2022/03/16 11:00:09;;;;;;;19.58;9.55;;;;;;;11.71;91.31;101921.34;5242161;28;20067;-81
2022/03/16 11:02:40;;;;;;;16.38;8.77;;;;;;;11.86;89.22;101912.31;5240556;28;20028;-82
2022/03/16 11:05:11;;;;;;;15.82;9.45;;;;;;;11.63;89.37;101920.59;5260728;28;20043;-83
2022/03/16 11:07:43;;;;;;;19.92;9.93;;;;;;;11.38;90.22;101921.91;5243502;28;20055;-81
2022/03/16 11:10:14;;;;;;;17.80;9.63;;;;;;;11.56;90.94;101920.75;5240709;28;20063;-82
2022/03/16 11:15:35;;;;;;;18.83;9.98;;;;;;;12.09;89.45;101915.38;5260620;28;20047;-81
2022/03/16 11:18:05;;;;;;;16.73;10.18;;;;;;;11.90;88.11;101909.63;5246299;28;20024;-82
2022/03/16 11:20:36;;;;;;;23.45;9.98;;;;;;;11.98;89.51;101909.47;5261990;28;20039;-81
2022/03/16 11:26:00;;;;;;;19.02;10.48;;;;;;;11.92;88.37;101915.69;5261522;28;20436;-81
2022/03/16 11:28:51;;;;;;;20.05;10.20;;;;;;;12.10;89.12;101911.84;5257790;28;20063;-82
2022/03/16 11:31:28;;;;;;;21.70;11.30;;;;;;;12.33;87.59;101899.97;5239679;28;20174;-82
2022/03/16 11:34:02;;;;;;;19.15;10.88;;;;;;;12.04;88.56;101902.34;5241590;28;20051;-78
2022/03/16 11:36:37;;;;;;;20.50;11.13;;;;;;;11.64;88.71;101892.69;5241682;28;20407;-82
2022/03/16 11:39:20;;;;;;;21.40;11.43;;;;;;;11.70;90.89;101889.94;5258987;28;20020;-81
2022/03/16 11:41:54;;;;;;;22.98;11.50;;;;;;;11.82;89.58;101894.94;5258854;28;20074;-81
2022/03/16 11:44:28;;;;;;;20.48;11.25;;;;;;;11.88;87.98;101895.69;5256334;28;20036;-81
2022/03/16 11:47:11;;;;;;;20.80;11.47;;;;;;;11.85;90.34;101890.50;5241253;28;20106;-82